RYR89YH EPMO-EIDW
Flight info
| Callsign | RYR89YH |
|---|---|
| Flight time | N/A |
| Altitude | 24000 |
| Route | OLILA L621 RILAB/N0437F380 L621 LUSID DCT ROE M743 TIDVU DCT KOKAK L975 LESRA DCT ROPAL DCT ERDOW UL975 SONEX L60 PENIL UL28 LELDO M145 BAGSO BAGSO4L |
| Aircraft | B738/M-SDE3FGILRWY/SB1 |
Departure
| Time | 2026-04-22 18:24 |
|---|---|
| Airport | Warsaw Modlin Airport (EPMO) |
Arrival
| Time | N/A |
|---|---|
| Airport | Dublin Airport (EIDW) |
| Time | Latitude | Longitude | Altitude | Speed | Heading |
|---|---|---|---|---|---|
| 2026-04-22 17:59 | 52.44751 | 20.65337 | 333 ft | 0 kts | 206° |
| 2026-04-22 18:13 | 52.44751 | 20.65338 | 337 ft | 0 kts | 206° |
| 2026-04-22 18:14 | 52.44756 | 20.65341 | 332 ft | 4 kts | 208° |
| 2026-04-22 18:14 | 52.44773 | 20.65364 | 332 ft | 4 kts | 193° |
| 2026-04-22 18:15 | 52.44794 | 20.65364 | 332 ft | 4 kts | 143° |
| 2026-04-22 18:15 | 52.44799 | 20.65343 | 334 ft | 2 kts | 81° |
| 2026-04-22 18:15 | 52.44797 | 20.65317 | 332 ft | 0 kts | 81° |
| 2026-04-22 18:19 | 52.44798 | 20.65327 | 332 ft | 2 kts | 81° |
| 2026-04-22 18:19 | 52.44802 | 20.65379 | 332 ft | 7 kts | 81° |
| 2026-04-22 18:19 | 52.44812 | 20.65484 | 336 ft | 11 kts | 81° |
| 2026-04-22 18:19 | 52.44825 | 20.65635 | 337 ft | 15 kts | 82° |
| 2026-04-22 18:20 | 52.44841 | 20.65813 | 334 ft | 16 kts | 81° |
| 2026-04-22 18:20 | 52.44860 | 20.66016 | 337 ft | 19 kts | 81° |
| 2026-04-22 18:20 | 52.44882 | 20.66250 | 333 ft | 22 kts | 81° |
| 2026-04-22 18:20 | 52.44903 | 20.66472 | 336 ft | 19 kts | 81° |
| 2026-04-22 18:21 | 52.44925 | 20.66706 | 335 ft | 21 kts | 81° |
| 2026-04-22 18:21 | 52.44945 | 20.66918 | 337 ft | 19 kts | 81° |
| 2026-04-22 18:21 | 52.44987 | 20.67073 | 336 ft | 15 kts | 20° |
| 2026-04-22 18:21 | 52.45056 | 20.67068 | 336 ft | 16 kts | 352° |
| 2026-04-22 18:22 | 52.45150 | 20.67045 | 335 ft | 12 kts | 352° |
| 2026-04-22 18:22 | 52.45202 | 20.67025 | 336 ft | 7 kts | 343° |
| 2026-04-22 18:22 | 52.45255 | 20.66993 | 336 ft | 9 kts | 330° |
| 2026-04-22 18:22 | 52.45282 | 20.66891 | 335 ft | 12 kts | 266° |
| 2026-04-22 18:23 | 52.45264 | 20.66700 | 332 ft | 39 kts | 261° |
| 2026-04-22 18:23 | 52.45171 | 20.65713 | 338 ft | 133 kts | 261° |
| 2026-04-22 18:23 | 52.44994 | 20.63872 | 733 ft | 185 kts | 262° |
| 2026-04-22 18:24 | 52.44515 | 20.59285 | 2761 ft | 208 kts | 264° |
| 2026-04-22 18:24 | 52.44305 | 20.56968 | 3588 ft | 205 kts | 277° |
| 2026-04-22 18:24 | 52.45636 | 20.53042 | 4017 ft | 214 kts | 314° |
| 2026-04-22 18:25 | 52.46802 | 20.51233 | 4190 ft | 242 kts | 319° |
| 2026-04-22 18:25 | 52.48065 | 20.49418 | 5272 ft | 240 kts | 319° |
| 2026-04-22 18:25 | 52.49323 | 20.47621 | 6354 ft | 241 kts | 319° |
| 2026-04-22 18:26 | 52.51914 | 20.43899 | 8138 ft | 254 kts | 320° |
| 2026-04-22 18:26 | 52.53252 | 20.41963 | 9035 ft | 260 kts | 321° |
| 2026-04-22 18:26 | 52.54624 | 20.39971 | 9941 ft | 266 kts | 322° |
| 2026-04-22 18:26 | 52.56036 | 20.37917 | 10568 ft | 281 kts | 322° |
| 2026-04-22 18:27 | 52.57574 | 20.35679 | 10851 ft | 306 kts | 321° |
| 2026-04-22 18:27 | 52.59185 | 20.33323 | 11563 ft | 314 kts | 321° |
| 2026-04-22 18:27 | 52.60825 | 20.30914 | 12445 ft | 317 kts | 321° |
| 2026-04-22 18:27 | 52.62477 | 20.28480 | 13332 ft | 321 kts | 322° |
| 2026-04-22 18:28 | 52.64152 | 20.26011 | 14149 ft | 325 kts | 322° |
| 2026-04-22 18:28 | 52.65825 | 20.23542 | 14909 ft | 329 kts | 322° |
| 2026-04-22 18:28 | 52.67537 | 20.21014 | 15682 ft | 332 kts | 322° |
| 2026-04-22 18:28 | 52.69267 | 20.18455 | 16478 ft | 335 kts | 322° |
| 2026-04-22 18:29 | 52.71035 | 20.15838 | 17256 ft | 339 kts | 322° |
| 2026-04-22 18:29 | 52.72773 | 20.13262 | 18014 ft | 343 kts | 322° |
| 2026-04-22 18:29 | 52.74555 | 20.10618 | 18705 ft | 347 kts | 322° |
| 2026-04-22 18:29 | 52.76357 | 20.07943 | 19341 ft | 350 kts | 322° |
| 2026-04-22 18:30 | 52.78178 | 20.05235 | 19988 ft | 354 kts | 322° |
| 2026-04-22 18:30 | 52.81877 | 19.99724 | 21240 ft | 362 kts | 322° |
| 2026-04-22 18:30 | 52.83756 | 19.96920 | 21847 ft | 366 kts | 322° |
| 2026-04-22 18:31 | 52.85652 | 19.94086 | 22451 ft | 370 kts | 321° |
| 2026-04-22 18:31 | 52.87573 | 19.91212 | 23046 ft | 374 kts | 321° |
| 2026-04-22 18:31 | 52.89502 | 19.88323 | 23614 ft | 378 kts | 321° |
| 2026-04-22 18:31 | 52.91466 | 19.85378 | 23996 ft | 382 kts | 322° |
| 2026-04-22 18:32 | 52.93432 | 19.82424 | 24034 ft | 379 kts | 321° |
| 2026-04-22 18:32 | 52.95383 | 19.79486 | 24063 ft | 380 kts | 322° |
| 2026-04-22 18:32 | 52.97360 | 19.76511 | 24149 ft | 387 kts | 321° |
| 2026-04-22 18:32 | 52.99365 | 19.73490 | 24575 ft | 391 kts | 322° |
| 2026-04-22 18:33 | 53.01384 | 19.70442 | 25108 ft | 393 kts | 322° |
| 2026-04-22 18:33 | 53.03410 | 19.67379 | 25587 ft | 396 kts | 322° |
| 2026-04-22 18:33 | 53.05485 | 19.64241 | 25990 ft | 401 kts | 322° |
| 2026-04-22 18:33 | 53.07493 | 19.61077 | 26374 ft | 407 kts | 320° |
| 2026-04-22 18:34 | 53.09494 | 19.57706 | 26776 ft | 411 kts | 319° |
| 2026-04-22 18:34 | 53.11488 | 19.54264 | 27186 ft | 415 kts | 319° |
| 2026-04-22 18:34 | 53.13502 | 19.50779 | 27604 ft | 419 kts | 320° |
| 2026-04-22 18:34 | 53.15533 | 19.47280 | 28000 ft | 422 kts | 320° |
| 2026-04-22 18:35 | 53.17589 | 19.43756 | 28362 ft | 426 kts | 320° |
| 2026-04-22 18:35 | 53.19670 | 19.40197 | 28714 ft | 430 kts | 320° |
| 2026-04-22 18:35 | 53.21769 | 19.36605 | 29093 ft | 434 kts | 320° |
| 2026-04-22 18:35 | 53.23851 | 19.32945 | 29457 ft | 438 kts | 319° |
| 2026-04-22 18:36 | 53.25874 | 19.29144 | 29811 ft | 443 kts | 317° |
| 2026-04-22 18:36 | 53.27909 | 19.25201 | 30149 ft | 447 kts | 317° |
| 2026-04-22 18:36 | 53.29927 | 19.21255 | 30441 ft | 450 kts | 317° |
| 2026-04-22 18:36 | 53.31973 | 19.17257 | 30745 ft | 452 kts | 317° |
| 2026-04-22 18:37 | 53.34022 | 19.13270 | 31055 ft | 454 kts | 317° |
| 2026-04-22 18:37 | 53.36092 | 19.09255 | 31356 ft | 455 kts | 318° |
| 2026-04-22 18:37 | 53.38169 | 19.05231 | 31661 ft | 457 kts | 318° |
| 2026-04-22 18:37 | 53.40242 | 19.01213 | 32054 ft | 456 kts | 318° |
| 2026-04-22 18:38 | 53.42315 | 18.97187 | 32492 ft | 454 kts | 319° |
| 2026-04-22 18:38 | 53.44378 | 18.93173 | 32906 ft | 453 kts | 319° |
| 2026-04-22 18:38 | 53.46430 | 18.89177 | 33268 ft | 453 kts | 319° |
| 2026-04-22 18:39 | 53.50547 | 18.81145 | 34010 ft | 453 kts | 319° |
| 2026-04-22 18:39 | 53.52565 | 18.77088 | 34343 ft | 456 kts | 315° |
| 2026-04-22 18:39 | 53.54412 | 18.72729 | 34613 ft | 460 kts | 312° |
| 2026-04-22 18:39 | 53.56185 | 18.68226 | 34866 ft | 462 kts | 310° |
| 2026-04-22 18:40 | 53.57920 | 18.63684 | 35162 ft | 462 kts | 310° |
| 2026-04-22 18:40 | 53.59655 | 18.59121 | 35474 ft | 461 kts | 310° |
| 2026-04-22 18:40 | 53.61388 | 18.54587 | 35761 ft | 461 kts | 310° |
| 2026-04-22 18:40 | 53.63135 | 18.50055 | 36016 ft | 461 kts | 310° |
| 2026-04-22 18:41 | 53.64893 | 18.45516 | 36282 ft | 461 kts | 310° |
| 2026-04-22 18:41 | 53.66628 | 18.41052 | 36563 ft | 461 kts | 310° |
| 2026-04-22 18:41 | 53.68385 | 18.36537 | 36836 ft | 461 kts | 310° |
| 2026-04-22 18:41 | 53.70144 | 18.32012 | 37089 ft | 461 kts | 309° |
| 2026-04-22 18:42 | 53.71923 | 18.27425 | 37362 ft | 461 kts | 309° |
| 2026-04-22 18:42 | 53.73651 | 18.22962 | 37631 ft | 460 kts | 309° |
| 2026-04-22 18:42 | 53.75400 | 18.18435 | 37878 ft | 461 kts | 309° |
| 2026-04-22 18:42 | 53.77154 | 18.13888 | 38097 ft | 461 kts | 309° |
| 2026-04-22 18:43 | 53.80676 | 18.04736 | 38114 ft | 466 kts | 309° |
| 2026-04-22 18:43 | 53.84190 | 17.95557 | 38114 ft | 462 kts | 309° |
| 2026-04-22 18:44 | 53.87662 | 17.86448 | 38116 ft | 459 kts | 309° |
| 2026-04-22 18:44 | 53.91110 | 17.77382 | 38125 ft | 457 kts | 308° |
| 2026-04-22 18:45 | 53.94541 | 17.68330 | 38127 ft | 456 kts | 308° |
| 2026-04-22 18:45 | 53.97968 | 17.59254 | 38131 ft | 456 kts | 308° |
| 2026-04-22 18:46 | 54.01393 | 17.50152 | 38135 ft | 458 kts | 308° |
| 2026-04-22 18:46 | 54.04824 | 17.40998 | 38133 ft | 460 kts | 308° |
| 2026-04-22 18:47 | 54.08267 | 17.31778 | 38142 ft | 462 kts | 308° |
| 2026-04-22 18:47 | 54.11725 | 17.22483 | 38135 ft | 464 kts | 308° |
| 2026-04-22 18:48 | 54.15174 | 17.13175 | 38136 ft | 466 kts | 308° |
| 2026-04-22 18:48 | 54.18631 | 17.03808 | 38142 ft | 467 kts | 308° |
| 2026-04-22 18:49 | 54.22088 | 16.94413 | 38137 ft | 468 kts | 308° |
| 2026-04-22 18:49 | 54.25616 | 16.85091 | 38135 ft | 464 kts | 311° |
| 2026-04-22 18:50 | 54.29464 | 16.76263 | 38145 ft | 462 kts | 313° |
| 2026-04-22 18:50 | 54.33345 | 16.67580 | 38141 ft | 462 kts | 313° |
| 2026-04-22 18:51 | 54.37009 | 16.58501 | 38140 ft | 465 kts | 308° |
| 2026-04-22 18:51 | 54.40389 | 16.49037 | 38142 ft | 465 kts | 307° |
| 2026-04-22 18:52 | 54.43749 | 16.39556 | 38136 ft | 464 kts | 307° |
| 2026-04-22 18:52 | 54.47132 | 16.30136 | 38138 ft | 463 kts | 307° |
| 2026-04-22 18:53 | 54.50525 | 16.20737 | 38136 ft | 463 kts | 307° |
| 2026-04-22 18:53 | 54.53919 | 16.11321 | 38134 ft | 462 kts | 307° |
| 2026-04-22 18:54 | 54.57300 | 16.01900 | 38140 ft | 462 kts | 307° |
| 2026-04-22 18:54 | 54.60677 | 15.92450 | 38142 ft | 463 kts | 307° |
| 2026-04-22 18:55 | 54.64046 | 15.82986 | 38143 ft | 463 kts | 307° |
| 2026-04-22 18:55 | 54.67412 | 15.73489 | 38148 ft | 464 kts | 307° |
| 2026-04-22 18:56 | 54.70778 | 15.63960 | 38152 ft | 464 kts | 307° |
| 2026-04-22 18:56 | 54.73571 | 15.56022 | 38151 ft | 465 kts | 307° |
| 2026-04-22 18:57 | 54.77498 | 15.44820 | 38156 ft | 466 kts | 307° |
| 2026-04-22 18:57 | 54.80853 | 15.35207 | 38158 ft | 466 kts | 307° |
| 2026-04-22 18:58 | 54.84206 | 15.25563 | 38164 ft | 467 kts | 307° |
| 2026-04-22 18:58 | 54.87553 | 15.15898 | 38159 ft | 467 kts | 306° |
| 2026-04-22 18:59 | 54.90331 | 15.07845 | 38167 ft | 468 kts | 306° |
| 2026-04-22 18:59 | 54.94232 | 14.96495 | 38175 ft | 468 kts | 306° |
| 2026-04-22 19:00 | 54.97540 | 14.86829 | 38149 ft | 468 kts | 306° |
| 2026-04-22 19:00 | 55.00884 | 14.77015 | 38162 ft | 468 kts | 306° |
| 2026-04-22 19:01 | 55.04178 | 14.67313 | 38154 ft | 468 kts | 306° |
| 2026-04-22 19:01 | 55.07503 | 14.57479 | 38149 ft | 468 kts | 306° |
| 2026-04-22 19:02 | 55.10795 | 14.47702 | 38163 ft | 467 kts | 306° |
| 2026-04-22 19:02 | 55.14060 | 14.37968 | 38163 ft | 467 kts | 306° |
| 2026-04-22 19:03 | 55.17338 | 14.28156 | 38168 ft | 467 kts | 306° |
| 2026-04-22 19:03 | 55.20603 | 14.18342 | 38187 ft | 467 kts | 306° |
| 2026-04-22 19:04 | 55.23863 | 14.08504 | 38192 ft | 467 kts | 306° |
| 2026-04-22 19:04 | 55.27114 | 13.98653 | 38195 ft | 467 kts | 305° |
| 2026-04-22 19:05 | 55.30359 | 13.88778 | 38203 ft | 467 kts | 305° |
| 2026-04-22 19:05 | 55.33601 | 13.78873 | 38216 ft | 468 kts | 305° |
| 2026-04-22 19:06 | 55.36838 | 13.68944 | 38208 ft | 469 kts | 305° |
| 2026-04-22 19:07 | 55.41273 | 13.53588 | 38204 ft | 477 kts | 291° |
| 2026-04-22 19:07 | 55.42588 | 13.42065 | 38212 ft | 482 kts | 282° |
| 2026-04-22 19:08 | 55.43440 | 13.32380 | 38212 ft | 482 kts | 282° |
| 2026-04-22 19:08 | 55.43963 | 13.26540 | 38213 ft | 482 kts | 282° |